sensor_id;sensor_type;location;lat;lon;timestamp;temperature;humidity
61145;DHT22;47026;51.208;3.288;2022-07-15T00:00:26;14.60;99.90
61145;DHT22;47026;51.208;3.288;2022-07-15T00:02:52;14.50;99.90
61145;DHT22;47026;51.208;3.288;2022-07-15T00:05:19;14.50;99.90
61145;DHT22;47026;51.208;3.288;2022-07-15T00:07:45;14.60;99.90
61145;DHT22;47026;51.208;3.288;2022-07-15T00:10:11;14.70;99.90
61145;DHT22;47026;51.208;3.288;2022-07-15T00:12:51;14.80;99.90
61145;DHT22;47026;51.208;3.288;2022-07-15T00:15:19;14.80;99.90
61145;DHT22;47026;51.208;3.288;2022-07-15T00:17:46;14.70;99.90
61145;DHT22;47026;51.208;3.288;2022-07-15T00:20:13;14.70;99.90
61145;DHT22;47026;51.208;3.288;2022-07-15T00:22:41;14.70;99.90
61145;DHT22;47026;51.208;3.288;2022-07-15T00:25:08;14.70;99.90
61145;DHT22;47026;51.208;3.288;2022-07-15T00:27:35;14.70;99.90
61145;DHT22;47026;51.208;3.288;2022-07-15T00:30:03;14.70;99.90
61145;DHT22;47026;51.208;3.288;2022-07-15T00:32:29;14.60;99.90
61145;DHT22;47026;51.208;3.288;2022-07-15T00:34:55;14.60;99.90
61145;DHT22;47026;51.208;3.288;2022-07-15T00:37:21;14.60;99.90
61145;DHT22;47026;51.208;3.288;2022-07-15T00:39:46;14.70;99.90
61145;DHT22;47026;51.208;3.288;2022-07-15T00:42:13;14.60;99.90
61145;DHT22;47026;51.208;3.288;2022-07-15T00:45:01;14.70;99.90
61145;DHT22;47026;51.208;3.288;2022-07-15T00:47:27;14.70;99.90
61145;DHT22;47026;51.208;3.288;2022-07-15T00:49:53;14.60;99.90
61145;DHT22;47026;51.208;3.288;2022-07-15T00:52:20;14.50;99.90
61145;DHT22;47026;51.208;3.288;2022-07-15T00:54:49;14.40;99.90
61145;DHT22;47026;51.208;3.288;2022-07-15T00:57:16;14.30;99.90
61145;DHT22;47026;51.208;3.288;2022-07-15T00:59:44;14.30;99.90
61145;DHT22;47026;51.208;3.288;2022-07-15T01:02:12;14.20;99.90
61145;DHT22;47026;51.208;3.288;2022-07-15T01:04:39;14.20;99.90
61145;DHT22;47026;51.208;3.288;2022-07-15T01:07:05;14.30;99.90
61145;DHT22;47026;51.208;3.288;2022-07-15T01:09:31;14.50;99.90
61145;DHT22;47026;51.208;3.288;2022-07-15T01:11:56;14.40;99.90
61145;DHT22;47026;51.208;3.288;2022-07-15T01:14:23;14.50;99.90
61145;DHT22;47026;51.208;3.288;2022-07-15T01:16:49;14.50;99.90
61145;DHT22;47026;51.208;3.288;2022-07-15T01:19:15;14.40;99.90
61145;DHT22;47026;51.208;3.288;2022-07-15T01:21:40;14.30;99.90
61145;DHT22;47026;51.208;3.288;2022-07-15T01:24:06;14.30;99.90
61145;DHT22;47026;51.208;3.288;2022-07-15T01:26:32;14.20;99.90
61145;DHT22;47026;51.208;3.288;2022-07-15T01:28:58;14.30;99.90
61145;DHT22;47026;51.208;3.288;2022-07-15T01:31:23;14.30;99.90
61145;DHT22;47026;51.208;3.288;2022-07-15T01:33:49;14.30;99.90
61145;DHT22;47026;51.208;3.288;2022-07-15T01:36:15;14.30;99.90
61145;DHT22;47026;51.208;3.288;2022-07-15T01:38:41;14.20;99.90
61145;DHT22;47026;51.208;3.288;2022-07-15T01:41:07;14.20;99.90
61145;DHT22;47026;51.208;3.288;2022-07-15T01:43:32;14.20;99.90
61145;DHT22;47026;51.208;3.288;2022-07-15T01:45:58;14.20;99.90
61145;DHT22;47026;51.208;3.288;2022-07-15T01:48:24;14.20;99.90
61145;DHT22;47026;51.208;3.288;2022-07-15T01:51:08;14.20;99.90
61145;DHT22;47026;51.208;3.288;2022-07-15T01:53:34;14.10;99.90
61145;DHT22;47026;51.208;3.288;2022-07-15T01:56:00;14.10;99.90
61145;DHT22;47026;51.208;3.288;2022-07-15T01:58:25;14.10;99.90
61145;DHT22;47026;51.208;3.288;2022-07-15T02:00:51;14.00;99.90
61145;DHT22;47026;51.208;3.288;2022-07-15T02:03:17;14.00;99.90
61145;DHT22;47026;51.208;3.288;2022-07-15T02:05:43;14.00;99.90
61145;DHT22;47026;51.208;3.288;2022-07-15T02:08:08;14.00;99.90
61145;DHT22;47026;51.208;3.288;2022-07-15T02:10:35;14.00;99.90
61145;DHT22;47026;51.208;3.288;2022-07-15T02:13:11;13.90;99.90
61145;DHT22;47026;51.208;3.288;2022-07-15T02:15:38;13.70;99.90
61145;DHT22;47026;51.208;3.288;2022-07-15T02:18:04;13.70;99.90
61145;DHT22;47026;51.208;3.288;2022-07-15T02:20:31;13.70;99.90
61145;DHT22;47026;51.208;3.288;2022-07-15T02:22:57;13.70;99.90
61145;DHT22;47026;51.208;3.288;2022-07-15T02:25:27;13.80;99.90
61145;DHT22;47026;51.208;3.288;2022-07-15T02:28:02;13.70;99.90
61145;DHT22;47026;51.208;3.288;2022-07-15T02:30:34;13.60;99.90
61145;DHT22;47026;51.208;3.288;2022-07-15T02:33:01;13.50;99.90
61145;DHT22;47026;51.208;3.288;2022-07-15T02:35:28;13.50;99.90
61145;DHT22;47026;51.208;3.288;2022-07-15T02:37:54;13.50;99.90
61145;DHT22;47026;51.208;3.288;2022-07-15T02:40:20;13.50;99.90
61145;DHT22;47026;51.208;3.288;2022-07-15T02:42:48;13.50;99.90
61145;DHT22;47026;51.208;3.288;2022-07-15T02:45:14;13.60;99.90
61145;DHT22;47026;51.208;3.288;2022-07-15T02:47:40;13.60;99.90
61145;DHT22;47026;51.208;3.288;2022-07-15T02:50:06;13.50;99.90
61145;DHT22;47026;51.208;3.288;2022-07-15T02:52:32;13.40;99.90
61145;DHT22;47026;51.208;3.288;2022-07-15T02:54:57;13.40;99.90
61145;DHT22;47026;51.208;3.288;2022-07-15T02:57:24;13.50;99.90
61145;DHT22;47026;51.208;3.288;2022-07-15T02:59:50;13.40;99.90
61145;DHT22;47026;51.208;3.288;2022-07-15T03:02:15;13.30;99.90
61145;DHT22;47026;51.208;3.288;2022-07-15T03:04:41;13.40;99.90
61145;DHT22;47026;51.208;3.288;2022-07-15T03:07:07;13.40;99.90
61145;DHT22;47026;51.208;3.288;2022-07-15T03:09:33;13.40;99.90
61145;DHT22;47026;51.208;3.288;2022-07-15T03:11:58;13.30;99.90
61145;DHT22;47026;51.208;3.288;2022-07-15T03:14:24;13.30;99.90
61145;DHT22;47026;51.208;3.288;2022-07-15T03:16:50;13.30;99.90
61145;DHT22;47026;51.208;3.288;2022-07-15T03:19:15;13.30;99.90
61145;DHT22;47026;51.208;3.288;2022-07-15T03:21:41;13.40;99.90
61145;DHT22;47026;51.208;3.288;2022-07-15T03:24:07;13.40;99.90
61145;DHT22;47026;51.208;3.288;2022-07-15T03:26:33;13.30;99.90
61145;DHT22;47026;51.208;3.288;2022-07-15T03:28:58;13.20;99.90
61145;DHT22;47026;51.208;3.288;2022-07-15T03:31:26;13.10;99.90
61145;DHT22;47026;51.208;3.288;2022-07-15T03:33:52;13.20;99.90
61145;DHT22;47026;51.208;3.288;2022-07-15T03:36:18;13.20;99.90
61145;DHT22;47026;51.208;3.288;2022-07-15T03:38:44;13.20;99.90
61145;DHT22;47026;51.208;3.288;2022-07-15T03:41:10;13.10;99.90
61145;DHT22;47026;51.208;3.288;2022-07-15T03:43:35;13.10;99.90
61145;DHT22;47026;51.208;3.288;2022-07-15T03:46:01;13.10;99.90
61145;DHT22;47026;51.208;3.288;2022-07-15T03:48:27;13.20;99.90
61145;DHT22;47026;51.208;3.288;2022-07-15T03:50:52;13.20;99.90
61145;DHT22;47026;51.208;3.288;2022-07-15T03:53:19;13.10;99.90
61145;DHT22;47026;51.208;3.288;2022-07-15T03:55:44;13.20;99.90
61145;DHT22;47026;51.208;3.288;2022-07-15T03:58:10;13.10;99.90
61145;DHT22;47026;51.208;3.288;2022-07-15T04:00:35;13.20;99.90
61145;DHT22;47026;51.208;3.288;2022-07-15T04:03:01;13.20;99.90
61145;DHT22;47026;51.208;3.288;2022-07-15T04:05:27;13.10;99.90
61145;DHT22;47026;51.208;3.288;2022-07-15T04:07:53;13.10;99.90
61145;DHT22;47026;51.208;3.288;2022-07-15T04:10:18;13.20;99.90
61145;DHT22;47026;51.208;3.288;2022-07-15T04:12:44;13.20;99.90
61145;DHT22;47026;51.208;3.288;2022-07-15T04:15:10;13.20;99.90
61145;DHT22;47026;51.208;3.288;2022-07-15T04:17:36;13.20;99.90
61145;DHT22;47026;51.208;3.288;2022-07-15T04:20:03;13.30;99.90
61145;DHT22;47026;51.208;3.288;2022-07-15T04:22:29;13.40;99.90
61145;DHT22;47026;51.208;3.288;2022-07-15T04:24:56;13.40;99.90
61145;DHT22;47026;51.208;3.288;2022-07-15T04:27:21;13.50;99.90
61145;DHT22;47026;51.208;3.288;2022-07-15T04:29:47;13.60;99.90
61145;DHT22;47026;51.208;3.288;2022-07-15T04:32:13;13.60;99.90
61145;DHT22;47026;51.208;3.288;2022-07-15T04:34:39;13.70;99.90
61145;DHT22;47026;51.208;3.288;2022-07-15T04:37:05;13.70;99.90
61145;DHT22;47026;51.208;3.288;2022-07-15T04:39:31;13.70;99.90
61145;DHT22;47026;51.208;3.288;2022-07-15T04:41:57;13.70;99.90
61145;DHT22;47026;51.208;3.288;2022-07-15T04:44:22;13.70;99.90
61145;DHT22;47026;51.208;3.288;2022-07-15T04:46:48;13.90;99.90
61145;DHT22;47026;51.208;3.288;2022-07-15T04:49:14;14.10;99.90
61145;DHT22;47026;51.208;3.288;2022-07-15T04:51:59;14.30;99.90
61145;DHT22;47026;51.208;3.288;2022-07-15T04:54:24;14.40;99.90
61145;DHT22;47026;51.208;3.288;2022-07-15T04:56:50;14.60;99.90
61145;DHT22;47026;51.208;3.288;2022-07-15T04:59:16;14.60;99.90
61145;DHT22;47026;51.208;3.288;2022-07-15T05:01:42;14.60;99.90
61145;DHT22;47026;51.208;3.288;2022-07-15T05:04:07;14.60;99.90
61145;DHT22;47026;51.208;3.288;2022-07-15T05:06:33;14.50;99.90
61145;DHT22;47026;51.208;3.288;2022-07-15T05:08:59;14.40;99.90
61145;DHT22;47026;51.208;3.288;2022-07-15T05:11:25;14.50;99.90
61145;DHT22;47026;51.208;3.288;2022-07-15T05:13:51;14.60;99.90
61145;DHT22;47026;51.208;3.288;2022-07-15T05:16:17;14.70;99.90
61145;DHT22;47026;51.208;3.288;2022-07-15T05:18:42;14.80;99.90
61145;DHT22;47026;51.208;3.288;2022-07-15T05:21:08;14.80;99.90
61145;DHT22;47026;51.208;3.288;2022-07-15T05:23:34;15.00;99.90
61145;DHT22;47026;51.208;3.288;2022-07-15T05:26:00;14.90;99.90
61145;DHT22;47026;51.208;3.288;2022-07-15T05:28:27;14.80;99.90
61145;DHT22;47026;51.208;3.288;2022-07-15T05:30:52;14.80;99.90
61145;DHT22;47026;51.208;3.288;2022-07-15T05:33:18;14.80;99.90
61145;DHT22;47026;51.208;3.288;2022-07-15T05:35:44;14.70;99.90
61145;DHT22;47026;51.208;3.288;2022-07-15T05:38:11;14.80;99.90
61145;DHT22;47026;51.208;3.288;2022-07-15T05:40:37;14.70;99.90
61145;DHT22;47026;51.208;3.288;2022-07-15T05:43:03;14.80;99.90
61145;DHT22;47026;51.208;3.288;2022-07-15T05:45:28;14.80;99.90
61145;DHT22;47026;51.208;3.288;2022-07-15T05:47:54;14.90;99.90
61145;DHT22;47026;51.208;3.288;2022-07-15T05:50:20;15.00;99.90
61145;DHT22;47026;51.208;3.288;2022-07-15T05:52:46;15.20;99.90
61145;DHT22;47026;51.208;3.288;2022-07-15T05:55:12;15.40;99.90
61145;DHT22;47026;51.208;3.288;2022-07-15T05:57:38;15.60;99.90
61145;DHT22;47026;51.208;3.288;2022-07-15T06:00:03;15.80;99.90
61145;DHT22;47026;51.208;3.288;2022-07-15T06:02:30;15.90;99.90
61145;DHT22;47026;51.208;3.288;2022-07-15T06:04:56;16.10;99.90
61145;DHT22;47026;51.208;3.288;2022-07-15T06:07:23;16.30;99.90
61145;DHT22;47026;51.208;3.288;2022-07-15T06:09:48;16.50;99.90
61145;DHT22;47026;51.208;3.288;2022-07-15T06:12:17;16.70;99.90
61145;DHT22;47026;51.208;3.288;2022-07-15T06:14:43;16.90;99.90
61145;DHT22;47026;51.208;3.288;2022-07-15T06:17:09;17.00;99.90
61145;DHT22;47026;51.208;3.288;2022-07-15T06:19:35;17.10;99.90
61145;DHT22;47026;51.208;3.288;2022-07-15T06:22:01;17.30;99.90
61145;DHT22;47026;51.208;3.288;2022-07-15T06:24:27;17.50;99.90
61145;DHT22;47026;51.208;3.288;2022-07-15T06:26:54;17.60;99.90
61145;DHT22;47026;51.208;3.288;2022-07-15T06:29:20;17.80;99.90
61145;DHT22;47026;51.208;3.288;2022-07-15T06:31:46;17.90;99.90
61145;DHT22;47026;51.208;3.288;2022-07-15T06:34:12;18.10;99.90
61145;DHT22;47026;51.208;3.288;2022-07-15T06:36:38;18.20;99.90
61145;DHT22;47026;51.208;3.288;2022-07-15T06:39:04;18.40;99.90
61145;DHT22;47026;51.208;3.288;2022-07-15T06:41:30;18.60;99.90
61145;DHT22;47026;51.208;3.288;2022-07-15T06:43:58;18.70;99.90
61145;DHT22;47026;51.208;3.288;2022-07-15T06:46:24;18.80;99.90
61145;DHT22;47026;51.208;3.288;2022-07-15T06:48:50;18.90;99.90
61145;DHT22;47026;51.208;3.288;2022-07-15T06:51:16;19.00;99.90
61145;DHT22;47026;51.208;3.288;2022-07-15T06:53:42;18.90;99.90
61145;DHT22;47026;51.208;3.288;2022-07-15T06:56:08;19.00;99.90
61145;DHT22;47026;51.208;3.288;2022-07-15T06:58:34;19.10;99.90
61145;DHT22;47026;51.208;3.288;2022-07-15T07:01:01;19.20;99.90
61145;DHT22;47026;51.208;3.288;2022-07-15T07:03:27;19.30;99.90
61145;DHT22;47026;51.208;3.288;2022-07-15T07:05:53;19.50;99.90
61145;DHT22;47026;51.208;3.288;2022-07-15T07:08:18;20.20;99.90
61145;DHT22;47026;51.208;3.288;2022-07-15T07:10:44;21.20;99.90
61145;DHT22;47026;51.208;3.288;2022-07-15T07:13:10;21.90;99.90
61145;DHT22;47026;51.208;3.288;2022-07-15T07:15:36;22.60;99.90
61145;DHT22;47026;51.208;3.288;2022-07-15T07:18:02;23.40;99.90
61145;DHT22;47026;51.208;3.288;2022-07-15T07:20:28;24.10;99.90
61145;DHT22;47026;51.208;3.288;2022-07-15T07:22:54;24.70;99.90
61145;DHT22;47026;51.208;3.288;2022-07-15T07:25:20;25.30;99.90
61145;DHT22;47026;51.208;3.288;2022-07-15T07:27:46;24.40;99.90
61145;DHT22;47026;51.208;3.288;2022-07-15T07:30:12;24.10;99.90
61145;DHT22;47026;51.208;3.288;2022-07-15T07:32:38;24.90;99.90
61145;DHT22;47026;51.208;3.288;2022-07-15T07:35:04;25.10;99.90
61145;DHT22;47026;51.208;3.288;2022-07-15T07:37:34;25.60;99.90
61145;DHT22;47026;51.208;3.288;2022-07-15T07:40:00;26.50;99.90
61145;DHT22;47026;51.208;3.288;2022-07-15T07:42:25;26.20;99.90
61145;DHT22;47026;51.208;3.288;2022-07-15T07:44:51;26.50;99.90
61145;DHT22;47026;51.208;3.288;2022-07-15T07:47:17;26.70;99.90
61145;DHT22;47026;51.208;3.288;2022-07-15T07:49:43;27.30;99.90
61145;DHT22;47026;51.208;3.288;2022-07-15T07:52:09;27.00;99.90
61145;DHT22;47026;51.208;3.288;2022-07-15T07:54:35;26.50;99.90
61145;DHT22;47026;51.208;3.288;2022-07-15T07:57:01;27.10;99.90
61145;DHT22;47026;51.208;3.288;2022-07-15T07:59:27;28.10;99.90
61145;DHT22;47026;51.208;3.288;2022-07-15T08:01:53;28.80;99.90
61145;DHT22;47026;51.208;3.288;2022-07-15T08:04:19;28.90;99.90
61145;DHT22;47026;51.208;3.288;2022-07-15T08:06:45;28.50;99.60
61145;DHT22;47026;51.208;3.288;2022-07-15T08:09:10;29.00;98.50
61145;DHT22;47026;51.208;3.288;2022-07-15T08:11:36;29.10;97.90
61145;DHT22;47026;51.208;3.288;2022-07-15T08:14:02;29.10;97.60
61145;DHT22;47026;51.208;3.288;2022-07-15T08:16:28;28.60;98.20
61145;DHT22;47026;51.208;3.288;2022-07-15T08:18:53;28.60;98.80
61145;DHT22;47026;51.208;3.288;2022-07-15T08:21:19;28.70;98.10
61145;DHT22;47026;51.208;3.288;2022-07-15T08:23:45;28.40;98.30
61145;DHT22;47026;51.208;3.288;2022-07-15T08:26:11;28.70;97.50
61145;DHT22;47026;51.208;3.288;2022-07-15T08:28:39;28.40;97.30
61145;DHT22;47026;51.208;3.288;2022-07-15T08:31:05;27.70;97.20
61145;DHT22;47026;51.208;3.288;2022-07-15T08:33:31;27.00;97.80
61145;DHT22;47026;51.208;3.288;2022-07-15T08:35:57;26.00;98.60
61145;DHT22;47026;51.208;3.288;2022-07-15T08:38:23;26.10;99.60
61145;DHT22;47026;51.208;3.288;2022-07-15T08:40:49;27.00;97.50
61145;DHT22;47026;51.208;3.288;2022-07-15T08:43:15;27.00;97.40
61145;DHT22;47026;51.208;3.288;2022-07-15T08:45:41;27.50;97.50
61145;DHT22;47026;51.208;3.288;2022-07-15T08:48:10;28.10;96.60
61145;DHT22;47026;51.208;3.288;2022-07-15T08:50:36;29.00;95.40
61145;DHT22;47026;51.208;3.288;2022-07-15T08:53:04;28.50;95.10
61145;DHT22;47026;51.208;3.288;2022-07-15T08:55:30;29.00;94.70
61145;DHT22;47026;51.208;3.288;2022-07-15T08:57:57;29.30;94.70
61145;DHT22;47026;51.208;3.288;2022-07-15T09:00:24;29.90;93.50
61145;DHT22;47026;51.208;3.288;2022-07-15T09:03:01;29.80;93.50
61145;DHT22;47026;51.208;3.288;2022-07-15T09:05:30;30.70;92.40
61145;DHT22;47026;51.208;3.288;2022-07-15T09:13:07;29.00;92.10
61145;DHT22;47026;51.208;3.288;2022-07-15T09:15:35;28.30;93.20
61145;DHT22;47026;51.208;3.288;2022-07-15T09:18:14;27.20;94.40
61145;DHT22;47026;51.208;3.288;2022-07-15T09:20:41;26.10;95.90
61145;DHT22;47026;51.208;3.288;2022-07-15T09:23:08;25.80;96.80
61145;DHT22;47026;51.208;3.288;2022-07-15T09:25:36;25.60;96.50
61145;DHT22;47026;51.208;3.288;2022-07-15T09:28:07;25.40;97.30
61145;DHT22;47026;51.208;3.288;2022-07-15T09:30:39;24.70;98.00
61145;DHT22;47026;51.208;3.288;2022-07-15T09:33:27;24.80;98.10
61145;DHT22;47026;51.208;3.288;2022-07-15T09:36:18;25.40;97.90
61145;DHT22;47026;51.208;3.288;2022-07-15T09:38:57;26.00;96.20
61145;DHT22;47026;51.208;3.288;2022-07-15T09:46:27;28.60;93.80
61145;DHT22;47026;51.208;3.288;2022-07-15T09:48:54;28.80;93.30
61145;DHT22;47026;51.208;3.288;2022-07-15T09:51:21;29.20;92.20
61145;DHT22;47026;51.208;3.288;2022-07-15T09:53:47;29.00;92.10
61145;DHT22;47026;51.208;3.288;2022-07-15T09:56:16;29.60;91.10
61145;DHT22;47026;51.208;3.288;2022-07-15T09:58:47;30.50;91.00
61145;DHT22;47026;51.208;3.288;2022-07-15T10:01:14;30.80;87.90
61145;DHT22;47026;51.208;3.288;2022-07-15T10:03:40;31.30;87.50
61145;DHT22;47026;51.208;3.288;2022-07-15T10:06:07;32.20;85.40
61145;DHT22;47026;51.208;3.288;2022-07-15T10:08:35;31.70;84.00
61145;DHT22;47026;51.208;3.288;2022-07-15T10:11:09;32.00;85.30
61145;DHT22;47026;51.208;3.288;2022-07-15T10:28:09;29.60;87.90
61145;DHT22;47026;51.208;3.288;2022-07-15T10:30:36;30.30;85.40
61145;DHT22;47026;51.208;3.288;2022-07-15T10:33:18;30.30;83.70
61145;DHT22;47026;51.208;3.288;2022-07-15T10:35:52;30.40;85.90
61145;DHT22;47026;51.208;3.288;2022-07-15T10:43:52;30.90;84.10
61145;DHT22;47026;51.208;3.288;2022-07-15T10:48:45;31.80;81.50
61145;DHT22;47026;51.208;3.288;2022-07-15T10:51:12;30.20;84.10
61145;DHT22;47026;51.208;3.288;2022-07-15T10:53:48;28.20;88.60
61145;DHT22;47026;51.208;3.288;2022-07-15T10:56:27;27.60;90.10
61145;DHT22;47026;51.208;3.288;2022-07-15T10:59:17;28.20;91.00
61145;DHT22;47026;51.208;3.288;2022-07-15T11:04:33;30.40;87.30
61145;DHT22;47026;51.208;3.288;2022-07-15T11:09:51;31.90;82.70
61145;DHT22;47026;51.208;3.288;2022-07-15T11:15:20;27.80;89.60
61145;DHT22;47026;51.208;3.288;2022-07-15T11:17:52;26.80;90.40
61145;DHT22;47026;51.208;3.288;2022-07-15T11:20:22;27.30;91.10
61145;DHT22;47026;51.208;3.288;2022-07-15T11:22:51;27.40;90.50
61145;DHT22;47026;51.208;3.288;2022-07-15T11:25:32;29.10;89.40
61145;DHT22;47026;51.208;3.288;2022-07-15T11:30:31;27.80;89.20
61145;DHT22;47026;51.208;3.288;2022-07-15T11:32:59;28.50;88.60
61145;DHT22;47026;51.208;3.288;2022-07-15T11:35:25;29.70;85.60
61145;DHT22;47026;51.208;3.288;2022-07-15T11:38:01;28.70;85.30
61145;DHT22;47026;51.208;3.288;2022-07-15T11:40:28;28.20;88.60
61145;DHT22;47026;51.208;3.288;2022-07-15T11:43:16;29.60;86.80
61145;DHT22;47026;51.208;3.288;2022-07-15T11:46:01;30.20;84.60
61145;DHT22;47026;51.208;3.288;2022-07-15T11:48:34;28.20;89.40
61145;DHT22;47026;51.208;3.288;2022-07-15T11:51:00;28.10;89.10
61145;DHT22;47026;51.208;3.288;2022-07-15T11:53:27;28.50;88.30
61145;DHT22;47026;51.208;3.288;2022-07-15T11:55:57;30.00;85.20
61145;DHT22;47026;51.208;3.288;2022-07-15T11:58:38;29.60;86.20
61145;DHT22;47026;51.208;3.288;2022-07-15T12:01:10;31.20;83.40
61145;DHT22;47026;51.208;3.288;2022-07-15T12:03:44;30.40;83.70
61145;DHT22;47026;51.208;3.288;2022-07-15T12:06:18;29.60;85.10
61145;DHT22;47026;51.208;3.288;2022-07-15T12:08:50;30.10;84.20
61145;DHT22;47026;51.208;3.288;2022-07-15T12:11:27;30.40;83.40
61145;DHT22;47026;51.208;3.288;2022-07-15T12:13:58;30.90;83.00
61145;DHT22;47026;51.208;3.288;2022-07-15T12:16:31;31.20;83.20
61145;DHT22;47026;51.208;3.288;2022-07-15T12:19:01;31.30;82.70
61145;DHT22;47026;51.208;3.288;2022-07-15T12:21:27;30.50;82.70
61145;DHT22;47026;51.208;3.288;2022-07-15T12:24:08;31.90;80.70
61145;DHT22;47026;51.208;3.288;2022-07-15T12:26:55;32.10;78.90
61145;DHT22;47026;51.208;3.288;2022-07-15T12:29:24;31.40;80.00
61145;DHT22;47026;51.208;3.288;2022-07-15T12:32:05;31.60;79.50
61145;DHT22;47026;51.208;3.288;2022-07-15T12:34:48;31.20;79.50
61145;DHT22;47026;51.208;3.288;2022-07-15T12:37:17;31.70;78.80
61145;DHT22;47026;51.208;3.288;2022-07-15T12:39:57;32.50;78.30
61145;DHT22;47026;51.208;3.288;2022-07-15T12:42:25;32.20;78.10
61145;DHT22;47026;51.208;3.288;2022-07-15T12:47:32;33.00;77.10
61145;DHT22;47026;51.208;3.288;2022-07-15T12:50:03;33.30;77.10
61145;DHT22;47026;51.208;3.288;2022-07-15T12:55:00;32.90;75.80
61145;DHT22;47026;51.208;3.288;2022-07-15T12:57:37;34.10;74.90
61145;DHT22;47026;51.208;3.288;2022-07-15T13:00:12;33.60;74.20
61145;DHT22;47026;51.208;3.288;2022-07-15T13:05:24;32.80;75.50
61145;DHT22;47026;51.208;3.288;2022-07-15T13:07:50;32.20;76.00
61145;DHT22;47026;51.208;3.288;2022-07-15T13:10:16;31.90;76.90
61145;DHT22;47026;51.208;3.288;2022-07-15T13:12:42;32.70;75.50
61145;DHT22;47026;51.208;3.288;2022-07-15T13:15:09;33.50;75.10
61145;DHT22;47026;51.208;3.288;2022-07-15T13:17:35;31.40;77.90
61145;DHT22;47026;51.208;3.288;2022-07-15T13:20:04;31.00;78.30
61145;DHT22;47026;51.208;3.288;2022-07-15T13:22:33;31.10;79.10
61145;DHT22;47026;51.208;3.288;2022-07-15T13:24:59;31.90;79.30
61145;DHT22;47026;51.208;3.288;2022-07-15T13:27:26;31.60;79.50
61145;DHT22;47026;51.208;3.288;2022-07-15T13:29:52;32.30;77.00
61145;DHT22;47026;51.208;3.288;2022-07-15T13:32:18;32.80;76.60
61145;DHT22;47026;51.208;3.288;2022-07-15T13:34:44;33.40;73.60
61145;DHT22;47026;51.208;3.288;2022-07-15T13:37:10;33.20;74.80
61145;DHT22;47026;51.208;3.288;2022-07-15T13:39:36;32.30;75.90
61145;DHT22;47026;51.208;3.288;2022-07-15T13:42:02;33.10;74.70
61145;DHT22;47026;51.208;3.288;2022-07-15T13:44:28;32.40;75.10
61145;DHT22;47026;51.208;3.288;2022-07-15T13:46:53;32.50;77.00
61145;DHT22;47026;51.208;3.288;2022-07-15T13:49:19;32.60;76.10
61145;DHT22;47026;51.208;3.288;2022-07-15T13:52:05;32.70;75.30
61145;DHT22;47026;51.208;3.288;2022-07-15T13:54:31;32.20;76.80
61145;DHT22;47026;51.208;3.288;2022-07-15T13:56:57;32.30;77.30
61145;DHT22;47026;51.208;3.288;2022-07-15T13:59:23;33.40;77.30
61145;DHT22;47026;51.208;3.288;2022-07-15T14:01:49;32.40;74.70
61145;DHT22;47026;51.208;3.288;2022-07-15T14:04:17;33.30;75.00
61145;DHT22;47026;51.208;3.288;2022-07-15T14:06:43;31.50;77.00
61145;DHT22;47026;51.208;3.288;2022-07-15T14:09:09;31.00;80.40
61145;DHT22;47026;51.208;3.288;2022-07-15T14:11:35;30.90;79.90
61145;DHT22;47026;51.208;3.288;2022-07-15T14:14:01;31.30;78.90
61145;DHT22;47026;51.208;3.288;2022-07-15T14:16:28;32.00;77.20
61145;DHT22;47026;51.208;3.288;2022-07-15T14:18:54;32.70;76.50
61145;DHT22;47026;51.208;3.288;2022-07-15T14:21:20;32.10;77.00
61145;DHT22;47026;51.208;3.288;2022-07-15T14:23:48;31.40;77.40
61145;DHT22;47026;51.208;3.288;2022-07-15T14:26:14;30.90;77.20
61145;DHT22;47026;51.208;3.288;2022-07-15T14:28:41;30.70;78.30
61145;DHT22;47026;51.208;3.288;2022-07-15T14:31:09;31.10;77.40
61145;DHT22;47026;51.208;3.288;2022-07-15T14:33:38;30.60;75.80
61145;DHT22;47026;51.208;3.288;2022-07-15T14:36:06;29.60;78.60
61145;DHT22;47026;51.208;3.288;2022-07-15T14:38:32;29.90;77.40
61145;DHT22;47026;51.208;3.288;2022-07-15T14:40:58;30.40;77.30
61145;DHT22;47026;51.208;3.288;2022-07-15T14:43:24;30.90;76.30
61145;DHT22;47026;51.208;3.288;2022-07-15T14:45:50;31.60;75.50
61145;DHT22;47026;51.208;3.288;2022-07-15T14:48:16;32.00;75.00
61145;DHT22;47026;51.208;3.288;2022-07-15T14:50:42;32.30;74.40
61145;DHT22;47026;51.208;3.288;2022-07-15T14:53:08;31.70;74.30
61145;DHT22;47026;51.208;3.288;2022-07-15T14:55:33;31.80;75.80
61145;DHT22;47026;51.208;3.288;2022-07-15T14:57:59;31.80;74.00
61145;DHT22;47026;51.208;3.288;2022-07-15T15:00:25;31.90;75.60
61145;DHT22;47026;51.208;3.288;2022-07-15T15:02:51;31.30;75.10
61145;DHT22;47026;51.208;3.288;2022-07-15T15:05:17;31.00;74.90
61145;DHT22;47026;51.208;3.288;2022-07-15T15:07:43;31.50;73.40
61145;DHT22;47026;51.208;3.288;2022-07-15T15:10:09;31.80;73.70
61145;DHT22;47026;51.208;3.288;2022-07-15T15:12:36;31.30;73.50
61145;DHT22;47026;51.208;3.288;2022-07-15T15:15:02;30.00;75.40
61145;DHT22;47026;51.208;3.288;2022-07-15T15:17:28;29.80;75.30
61145;DHT22;47026;51.208;3.288;2022-07-15T15:19:54;30.10;75.80
61145;DHT22;47026;51.208;3.288;2022-07-15T15:22:20;31.00;74.90
61145;DHT22;47026;51.208;3.288;2022-07-15T15:24:46;30.70;74.20
61145;DHT22;47026;51.208;3.288;2022-07-15T15:27:11;31.20;74.40
61145;DHT22;47026;51.208;3.288;2022-07-15T15:29:38;30.40;75.80
61145;DHT22;47026;51.208;3.288;2022-07-15T15:32:05;30.40;75.50
61145;DHT22;47026;51.208;3.288;2022-07-15T15:34:32;30.20;74.80
61145;DHT22;47026;51.208;3.288;2022-07-15T15:36:58;30.00;75.60
61145;DHT22;47026;51.208;3.288;2022-07-15T15:39:24;29.30;76.60
61145;DHT22;47026;51.208;3.288;2022-07-15T15:41:50;29.00;77.50
61145;DHT22;47026;51.208;3.288;2022-07-15T15:44:16;28.00;78.50
61145;DHT22;47026;51.208;3.288;2022-07-15T15:46:42;28.00;79.20
61145;DHT22;47026;51.208;3.288;2022-07-15T15:49:08;27.80;79.90
61145;DHT22;47026;51.208;3.288;2022-07-15T15:51:34;27.70;78.60
61145;DHT22;47026;51.208;3.288;2022-07-15T15:54:00;26.90;79.80
61145;DHT22;47026;51.208;3.288;2022-07-15T15:56:26;27.00;80.50
61145;DHT22;47026;51.208;3.288;2022-07-15T15:58:52;26.40;82.40
61145;DHT22;47026;51.208;3.288;2022-07-15T16:01:18;26.50;82.40
61145;DHT22;47026;51.208;3.288;2022-07-15T16:03:44;26.00;82.60
61145;DHT22;47026;51.208;3.288;2022-07-15T16:06:10;25.50;84.60
61145;DHT22;47026;51.208;3.288;2022-07-15T16:08:36;25.30;84.10
61145;DHT22;47026;51.208;3.288;2022-07-15T16:11:02;24.90;85.00
61145;DHT22;47026;51.208;3.288;2022-07-15T16:13:28;24.90;84.70
61145;DHT22;47026;51.208;3.288;2022-07-15T16:15:54;24.40;86.40
61145;DHT22;47026;51.208;3.288;2022-07-15T16:18:20;24.10;87.60
61145;DHT22;47026;51.208;3.288;2022-07-15T16:20:46;24.00;85.90
61145;DHT22;47026;51.208;3.288;2022-07-15T16:23:11;23.90;86.90